GW1943 Weather Reports


time (UTC)temp
F
wind
direction
speed
knots
gust
knots
rain 1hr
in
rain 24hr
in
rain mn
in
humidity
%
barometer
mb
20240614121238 48 203 0.0 0.0 0.00 0.00 0.00 81 1021.0
20240614120738 48 209 0.0 1.7 0.00 0.00 0.00 79 1020.9
20240614120237 48 203 0.9 2.6 0.00 0.00 0.00 79 1020.7
20240614115736 48 206 0.9 1.7 0.00 0.00 0.00 80 1020.8
20240614115234 48 201 0.0 2.6 0.00 0.00 0.00 80 1020.8
20240614114733 48 205 0.0 1.7 0.00 0.00 0.00 80 1020.9
20240614114232 48 207 0.9 1.7 0.00 0.00 0.00 79 1020.9
20240614113730 48 178 0.0 1.7 0.00 0.00 0.00 79 1021.1
20240614113229 48 204 0.0 0.9 0.00 0.00 0.00 80 1020.9
20240614112729 48 203 0.0 1.7 0.00 0.00 0.00 81 1020.9
20240614112228 48 203 0.0 0.0 0.00 0.00 0.00 82 1020.9
20240614111726 48 144 0.9 2.6 0.00 0.00 0.00 81 1020.7
20240614111226 48 203 0.0 0.9 0.00 0.00 0.00 81 1021.0
20240614110724 48 205 0.0 0.0 0.00 0.00 0.00 80 1020.8
20240614110225 49 207 0.9 1.7 0.00 0.00 0.00 79 1020.9
20240614105724 49 197 0.0 0.9 0.00 0.00 0.00 80 1020.8
20240614105223 49 210 0.0 0.0 0.00 0.00 0.00 80 1021.0
20240614104721 49 160 0.0 1.7 0.00 0.00 0.00 78 1020.7
20240614104219 49 217 0.9 0.9 0.00 0.00 0.00 79 1020.9
20240614103718 49 187 0.0 0.9 0.00 0.00 0.00 79 1020.9
20240614103216 49 209 0.0 1.7 0.00 0.00 0.00 78 1020.8
20240614102715 49 204 0.9 1.7 0.00 0.00 0.00 79 1020.7
20240614102213 49 198 0.9 0.9 0.00 0.00 0.00 80 1020.7
20240614101711 49 206 0.9 1.7 0.00 0.00 0.00 80 1020.6
20240614101211 50 198 0.0 0.0 0.00 0.00 0.00 79 1020.8
20240614100710 50 208 0.9 0.9 0.00 0.00 0.00 78 1020.6
20240614100208 50 199 0.0 0.9 0.00 0.00 0.00 78 1020.8
20240614095708 50 208 0.9 4.3 0.00 0.00 0.00 75 1020.8
20240614095207 50 206 0.0 0.9 0.00 0.00 0.00 76 1020.7
20240614094706 50 205 1.7 2.6 0.00 0.00 0.00 77 1020.7
20240614094205 50 197 0.0 0.0 0.00 0.00 0.00 79 1020.6
20240614093704 50 198 0.0 0.0 0.00 0.00 0.00 79 1020.7
20240614093204 51 206 0.9 0.9 0.00 0.00 0.00 77 1020.7
20240614092703 51 207 0.9 1.7 0.00 0.00 0.00 75 1020.9
20240614092200 50 201 0.0 2.6 0.00 0.00 0.00 77 1020.6
20240614091659 51 205 0.0 0.0 0.00 0.00 0.00 77 1020.6
20240614091158 51 212 0.0 0.9 0.00 0.00 0.00 76 1020.3
20240614090656 51 208 0.9 1.7 0.00 0.00 0.00 78 1020.4
20240614090155 50 215 0.0 0.9 0.00 0.00 0.00 78 1020.3
20240614085654 50 207 0.0 0.9 0.00 0.00 0.00 80 1020.4
20240614085153 50 198 0.0 0.0 0.00 0.00 0.00 81 1020.2
20240614084653 50 198 0.0 0.0 0.00 0.00 0.00 81 1020.3
20240614084151 50 198 0.0 0.0 0.00 0.00 0.00 80 1020.3
20240614083649 51 197 0.0 0.0 0.00 0.00 0.00 80 1020.2
20240614083148 51 198 0.0 0.0 0.00 0.00 0.00 80 1020.2
20240614082645 53 198 0.0 0.0 0.00 0.00 0.00 81 1020.0
20240614082144 53 209 0.9 1.7 0.00 0.00 0.00 73 1020.2
20240614081641 54 222 0.9 1.7 0.00 0.00 0.00 71 1020.0
20240614081140 54 239 1.7 4.3 0.00 0.00 0.00 71 1020.3
20240614080640 53 217 1.7 5.2 0.00 0.00 0.00 73 1020.0
20240614080138 52 202 0.0 0.0 0.00 0.00 0.00 76 1019.9
20240614075635 53 208 0.0 0.9 0.00 0.00 0.00 74 1020.2
20240614075135 52 206 0.0 0.0 0.00 0.00 0.00 75 1020.1
20240614074634 52 200 0.0 0.0 0.00 0.00 0.00 79 1019.9
20240614074133 52 200 0.0 0.0 0.00 0.00 0.00 76 1019.9
20240614073632 53 201 0.0 0.0 0.00 0.00 0.00 75 1020.1
20240614073130 53 201 0.0 0.0 0.00 0.00 0.00 72 1019.8
20240614072629 53 201 0.0 0.0 0.00 0.00 0.00 70 1019.9
20240614072128 53 201 0.0 0.0 0.00 0.00 0.00 68 1019.4
20240614071626 54 201 0.0 0.0 0.00 0.00 0.00 67 1019.7
20240614071125 54 201 0.0 0.0 0.00 0.00 0.00 67 1019.7
20240614070624 54 203 0.0 0.0 0.00 0.00 0.00 66 1019.7
20240614070123 54 196 0.0 0.0 0.00 0.00 0.00 70 1019.7
20240614065622 54 198 0.0 1.7 0.00 0.00 0.00 70 1019.6
20240614065120 55 196 0.0 0.9 0.00 0.00 0.00 70 1019.6
20240614064619 55 194 0.0 0.9 0.00 0.00 0.00 62 1019.4
20240614064118 55 197 0.0 0.0 0.00 0.00 0.00 62 1019.4
20240614063616 56 197 0.0 0.9 0.00 0.00 0.00 62 1019.4
20240614063115 55 204 0.0 0.9 0.00 0.00 0.00 63 1019.4
20240614062612 55 218 0.0 0.0 0.00 0.00 0.00 65 1019.3
20240614062110 55 218 0.0 0.0 0.00 0.00 0.00 64 1019.2
20240614061609 56 218 0.0 0.0 0.00 0.00 0.00 64 1019.0
20240614061108 56 218 0.0 0.0 0.00 0.00 0.00 62 1019.2
20240614060604 56 218 0.0 0.0 0.00 0.00 0.00 60 1019.2
20240614060103 56 224 0.9 0.9 0.00 0.00 0.00 61 1019.0
20240614055603 56 217 0.0 0.0 0.00 0.00 0.00 61 1019.1
20240614055100 57 217 0.0 0.0 0.00 0.00 0.00 62 1019.0
20240614054558 56 217 0.0 0.0 0.00 0.00 0.00 62 1018.8
20240614054057 56 217 0.0 0.0 0.00 0.00 0.00 66 1018.8
20240614053553 56 217 0.0 0.0 0.00 0.00 0.00 64 1018.6
20240614053051 56 217 0.0 0.0 0.00 0.00 0.00 63 1018.8
20240614052550 57 217 0.0 0.0 0.00 0.00 0.00 62 1018.6
20240614052049 57 216 0.0 0.0 0.00 0.00 0.00 61 1018.7
20240614051548 58 216 0.0 0.0 0.00 0.00 0.00 61 1018.8
20240614051046 58 217 0.0 0.9 0.00 0.00 0.00 60 1018.5
20240614050547 58 211 0.0 0.9 0.00 0.00 0.00 59 1018.5
20240614050045 59 224 0.0 0.9 0.00 0.00 0.00 58 1018.3
20240614045543 59 197 0.0 0.0 0.00 0.00 0.00 58 1018.2
20240614045042 59 197 0.0 0.9 0.00 0.00 0.00 59 1018.0
20240614044540 60 195 0.0 0.9 0.00 0.00 0.00 55 1018.2
20240614044039 60 202 0.0 0.9 0.00 0.00 0.00 56 1018.0
20240614043537 61 201 0.0 0.0 0.00 0.00 0.00 56 1018.1
20240614043036 62 213 0.0 0.0 0.00 0.00 0.00 55 1018.0
20240614042535 62 192 0.0 0.0 0.00 0.00 0.00 55 1017.8
20240614042033 63 191 0.0 0.0 0.00 0.00 0.00 54 1017.9
20240614041532 63 190 0.0 0.0 0.00 0.00 0.00 54 1017.9
20240614041031 63 236 0.0 1.7 0.00 0.00 0.00 55 1017.7
20240614040529 63 220 0.0 0.0 0.00 0.00 0.00 58 1017.7
20240614040028 64 215 0.0 0.0 0.00 0.00 0.00 56 1017.7
20240614035525 64 207 0.0 0.0 0.00 0.00 0.00 52 1017.5
20240614035024 65 207 0.0 0.0 0.00 0.00 0.00 52 1017.6
20240614034523 65 213 0.0 0.9 0.00 0.00 0.00 53 1017.5
20240614034021 66 219 0.0 0.9 0.00 0.00 0.00 54 1017.4
20240614033520 66 213 0.0 1.7 0.00 0.00 0.00 51 1017.4
20240614033019 67 196 0.0 0.9 0.00 0.00 0.00 51 1017.6
20240614032518 67 232 0.0 0.0 0.00 0.00 0.00 53 1017.7
20240614032017 68 230 0.0 0.9 0.00 0.00 0.00 52 1017.6
20240614031515 68 219 0.0 1.7 0.00 0.00 0.00 56 1017.6
20240614031013 68 224 1.7 1.7 0.00 0.00 0.00 52 1017.8
20240614030511 68 228 0.9 1.7 0.00 0.00 0.00 51 1017.6
20240614030011 69 204 0.0 0.9 0.00 0.00 0.00 50 1017.4
20240614025506 68 226 0.0 0.0 0.00 0.00 0.00 48 1017.8
20240614025005 68 224 0.0 0.0 0.00 0.00 0.00 47 1017.7
20240614024503 67 224 0.0 0.0 0.00 0.00 0.00 46 1018.0
20240614024001 67 224 0.0 0.0 0.00 0.00 0.00 48 1017.8
20240614023459 67 224 0.0 0.0 0.00 0.00 0.00 47 1017.7
20240614022957 67 225 0.0 0.0 0.00 0.00 0.00 48 1017.6
20240614022456 67 221 0.0 0.0 0.00 0.00 0.00 50 1017.7
20240614021955 68 218 0.9 1.7 0.00 0.00 0.00 47 1017.6
20240614021453 69 219 0.0 0.9 0.00 0.00 0.00 45 1017.6
20240614020951 70 214 0.0 1.7 0.00 0.00 0.00 44 1017.7
20240614020451 70 227 0.0 0.9 0.00 0.00 0.00 44 1017.7
20240614015949 69 187 1.7 2.6 0.00 0.00 0.00 42 1017.7
20240614015448 69 214 0.0 0.9 0.00 0.00 0.00 46 1017.7
20240614014948 70 221 0.0 1.7 0.00 0.00 0.00 45 1017.6
20240614014447 71 232 0.9 1.7 0.00 0.00 0.00 42 1017.6
20240614013945 71 199 0.0 0.9 0.00 0.00 0.00 43 1017.5
20240614013444 72 215 0.0 0.9 0.00 0.00 0.00 39 1017.6
20240614012943 73 209 0.9 2.6 0.00 0.00 0.00 41 1017.5
20240614012442 72 216 0.0 0.9 0.00 0.00 0.00 42 1017.5
20240614011940 72 225 0.0 1.7 0.00 0.00 0.00 43 1017.6
20240614011438 72 210 0.0 1.7 0.00 0.00 0.00 44 1017.7
20240614010937 70 215 0.0 1.7 0.00 0.00 0.00 44 1017.4
20240614010435 69 214 0.9 1.7 0.00 0.00 0.00 47 1017.4
20240614005932 69 221 0.0 0.9 0.00 0.00 0.00 47 1017.4
20240614005430 68 205 0.9 1.7 0.00 0.00 0.00 42 1017.3
20240614004929 69 221 0.9 1.7 0.00 0.00 0.00 47 1017.6
20240614004429 71 227 0.9 2.6 0.00 0.00 0.00 43 1017.5
20240614003927 70 222 0.9 2.6 0.00 0.00 0.00 41 1017.5
20240614003427 71 234 2.6 4.3 0.00 0.00 0.00 40 1017.6
20240614002926 70 212 0.0 0.9 0.00 0.00 0.00 44 1017.5
20240614002424 69 214 0.0 0.9 0.00 0.00 0.00 45 1017.6
20240614001923 69 242 1.7 1.7 0.00 0.00 0.00 41 1017.6
20240614001423 70 224 1.7 1.7 0.00 0.00 0.00 42 1017.5
20240614000921 71 229 0.0 0.0 0.00 0.00 0.00 39 1017.4
20240614000420 70 217 0.0 2.6 0.00 0.00 0.00 42 1017.6
20240613235919 71 208 1.7 2.6 0.00 0.00 0.00 39 1017.5
20240613235419 70 217 0.0 2.6 0.00 0.00 0.00 40 1017.6
20240613234919 69 222 0.0 1.7 0.00 0.00 0.00 42 1017.6
20240613234415 70 213 1.7 2.6 0.00 0.00 0.00 36 1017.6
20240613233913 70 225 0.0 0.9 0.00 0.00 0.00 41 1017.5
20240613233411 70 225 0.9 2.6 0.00 0.00 0.00 40 1017.3
20240613232910 69 205 0.9 1.7 0.00 0.00 0.00 38 1017.7
20240613232410 70 218 0.0 0.9 0.00 0.00 0.00 43 1017.6
20240613231908 69 214 0.9 1.7 0.00 0.00 0.00 37 1017.8
20240613231405 69 224 0.0 0.9 0.00 0.00 0.00 44 1017.6
20240613230904 69 216 0.0 1.7 0.00 0.00 0.00 41 1017.7
20240613230402 69 211 0.0 1.7 0.00 0.00 0.00 46 1017.8
20240613225859 69 221 0.0 1.7 0.00 0.00 0.00 43 1017.6
20240613225357 69 213 0.0 1.7 0.00 0.00 0.00 37 1017.8
20240613224852 68 223 0.0 0.9 0.00 0.00 0.00 37 1017.8
20240613224347 68 224 1.7 2.6 0.00 0.00 0.00 39 1017.4
20240613223845 68 220 0.0 1.7 0.00 0.00 0.00 42 1017.5
20240613223344 68 155 0.9 2.6 0.00 0.00 0.00 42 1017.6
20240613222843 69 226 0.0 0.0 0.00 0.00 0.00 37 1017.5
20240613222342 69 231 0.9 1.7 0.00 0.00 0.00 40 1017.9
20240613221841 69 218 0.0 0.9 0.00 0.00 0.00 46 1017.9
20240613221340 69 214 0.0 1.7 0.00 0.00 0.00 45 1017.9
20240613220840 70 186 0.9 0.9 0.00 0.00 0.00 42 1017.8
20240613220338 69 236 0.0 1.7 0.00 0.00 0.00 46 1017.7
20240613215837 68 222 0.0 4.3 0.00 0.00 0.00 46 1017.9
20240613215335 69 223 0.0 1.7 0.00 0.00 0.00 47 1017.9
20240613214834 68 224 0.9 1.7 0.00 0.00 0.00 48 1017.9
20240613214333 69 209 0.0 2.6 0.00 0.00 0.00 47 1017.8
20240613213831 70 252 1.7 2.6 0.00 0.00 0.00 44 1018.0
20240613213330 69 223 1.7 1.7 0.00 0.00 0.00 45 1018.4
20240613212830 69 230 1.7 2.6 0.00 0.00 0.00 44 1018.1
20240613212328 68 215 1.7 2.6 0.00 0.00 0.00 45 1018.3
20240613211828 67 230 0.9 2.6 0.00 0.00 0.00 52 1018.3
20240613211328 67 226 0.9 5.2 0.00 0.00 0.00 50 1018.3
20240613210827 67 204 1.7 2.6 0.00 0.00 0.00 48 1018.5
20240613210325 67 209 0.9 2.6 0.00 0.00 0.00 50 1018.3
20240613205825 67 214 0.9 1.7 0.00 0.00 0.00 49 1018.4
20240613205323 67 230 0.9 1.7 0.00 0.00 0.00 50 1018.4
20240613204823 67 214 0.0 2.6 0.00 0.00 0.00 50 1018.4
20240613204322 66 215 1.7 4.3 0.00 0.00 0.00 51 1018.2
20240613203820 67 210 0.9 2.6 0.00 0.00 0.00 49 1018.3
20240613203318 67 228 1.7 2.6 0.00 0.00 0.00 51 1018.4
20240613202817 68 245 3.5 4.3 0.00 0.00 0.00 48 1018.3
20240613202316 67 226 2.6 4.3 0.00 0.00 0.00 50 1018.5
20240613201814 66 232 0.9 1.7 0.00 0.00 0.00 53 1018.5
20240613201312 66 212 1.7 4.3 0.00 0.00 0.00 52 1018.5
20240613200810 68 219 2.6 2.6 0.00 0.00 0.00 53 1018.6
20240613200308 66 233 0.9 2.6 0.00 0.00 0.00 57 1018.9
20240613195807 68 239 1.7 1.7 0.00 0.00 0.00 52 1018.8
20240613195307 67 206 0.0 2.6 0.00 0.00 0.00 54 1018.6
20240613194803 66 223 2.6 4.3 0.00 0.00 0.00 55 1018.9
20240613194301 66 205 2.6 4.3 0.00 0.00 0.00 52 1018.7
20240613193800 67 219 0.0 1.7 0.00 0.00 0.00 54 1018.8
20240613193259 66 235 1.7 1.7 0.00 0.00 0.00 57 1018.7
20240613192759 66 250 1.7 2.6 0.00 0.00 0.00 54 1018.7
20240613192257 66 222 1.7 1.7 0.00 0.00 0.00 55 1018.9
20240613191757 67 200 1.7 1.7 0.00 0.00 0.00 54 1018.8
20240613191257 66 221 1.7 1.7 0.00 0.00 0.00 57 1018.7
20240613190757 65 218 1.7 4.3 0.00 0.00 0.00 56 1019.0
20240613190255 65 212 2.6 2.6 0.00 0.00 0.00 57 1018.9
20240613185754 66 237 0.9 4.3 0.00 0.00 0.00 57 1018.9
20240613185252 65 214 1.7 2.6 0.00 0.00 0.00 58 1019.0
20240613184751 66 205 2.6 2.6 0.00 0.00 0.00 57 1018.9
20240613184251 66 201 1.7 1.7 0.00 0.00 0.00 56 1019.0
20240613183750 66 216 0.9 2.6 0.00 0.00 0.00 55 1019.2
20240613183249 66 215 0.9 1.7 0.00 0.00 0.00 57 1018.9
20240613182748 66 196 1.7 2.6 0.00 0.00 0.00 56 1019.0
20240613182247 65 203 0.0 1.7 0.00 0.00 0.00 57 1018.9
20240613181747 65 215 0.9 2.6 0.00 0.00 0.00 57 1019.0
20240613181247 64 152 0.0 1.7 0.00 0.00 0.00 58 1019.1
20240613180745 63 82 1.7 2.6 0.00 0.00 0.00 59 1019.0
20240613180243 63 204 0.0 1.7 0.00 0.00 0.00 61 1019.3
20240613175741 62 216 0.0 2.6 0.00 0.00 0.00 61 1019.1
20240613175240 62 222 0.9 0.9 0.00 0.00 0.00 61 1019.3
20240613174739 63 205 0.9 1.7 0.00 0.00 0.00 64 1019.3
20240613174237 62 224 0.9 0.9 0.00 0.00 0.00 65 1019.4
20240613173737 61 208 0.0 2.6 0.00 0.00 0.00 62 1019.4
20240613173238 61 227 0.9 1.7 0.00 0.00 0.00 64 1019.5
20240613172734 60 197 0.9 1.7 0.00 0.00 0.00 67 1019.5
20240613172234 59 220 0.0 0.9 0.00 0.00 0.00 69 1019.6
20240613171733 59 215 0.9 1.7 0.00 0.00 0.00 69 1019.6
20240613171230 59 216 2.6 2.6 0.00 0.00 0.00 69 1019.7
20240613170729 59 220 0.0 1.7 0.00 0.00 0.00 71 1019.7
20240613170228 58 213 0.9 1.7 0.00 0.00 0.00 70 1019.6
20240613165727 58 242 0.9 1.7 0.00 0.00 0.00 69 1019.7
20240613165225 58 169 0.9 0.9 0.00 0.00 0.00 70 1019.7
20240613164725 58 170 0.0 1.7 0.00 0.00 0.00 71 1019.9
20240613164224 58 203 0.0 0.9 0.00 0.00 0.00 71 1019.8
20240613163722 57 224 0.0 2.6 0.00 0.00 0.00 70 1019.9
20240613163217 57 162 0.9 1.7 0.00 0.00 0.00 70 1019.9
20240613162714 57 199 0.0 1.7 0.00 0.00 0.00 72 1019.7
20240613162213 56 121 0.0 0.9 0.00 0.00 0.00 72 1019.8
20240613161712 56 57 0.9 1.7 0.00 0.00 0.00 72 1020.0
20240613161212 56 235 0.9 2.6 0.00 0.00 0.00 73 1019.8
20240613160710 56 175 0.0 0.9 0.00 0.00 0.00 74 1019.9
20240613160209 56 211 0.0 0.9 0.00 0.00 0.00 72 1019.7
20240613155708 55 140 1.7 1.7 0.00 0.00 0.00 73 1019.8
20240613155208 54 211 0.9 0.9 0.00 0.00 0.00 77 1019.6
20240613154707 54 210 0.0 0.0 0.00 0.00 0.00 76 1020.1
20240613154207 54 214 0.0 0.0 0.00 0.00 0.00 77 1019.9
20240613153705 54 220 0.0 1.7 0.00 0.00 0.00 77 1020.0
20240613153204 54 205 0.9 0.9 0.00 0.00 0.00 76 1020.1
20240613152704 54 210 0.0 0.9 0.00 0.00 0.00 75 1020.0
20240613152203 54 219 0.0 0.9 0.00 0.00 0.00 75 1020.1
20240613151702 53 164 0.9 1.7 0.00 0.00 0.00 76 1020.2
20240613151200 53 216 0.0 0.9 0.00 0.00 0.00 78 1020.1
20240613150700 53 211 0.0 0.9 0.00 0.00 0.00 79 1020.0
20240613150158 53 199 0.0 0.9 0.00 0.00 0.00 78 1020.0
20240613145657 52 210 0.0 1.7 0.00 0.00 0.00 78 1019.9
20240613145156 52 212 0.0 1.7 0.00 0.00 0.00 80 1019.9
20240613144656 52 238 1.7 1.7 0.00 0.00 0.00 80 1019.9
20240613144155 52 122 0.9 1.7 0.00 0.00 0.00 81 1020.2
20240613143654 52 221 0.9 1.7 0.00 0.00 0.00 81 1019.8
20240613143153 52 198 0.0 0.9 0.00 0.00 0.00 82 1020.0
20240613142653 51 210 0.0 0.9 0.00 0.00 0.00 83 1020.1
20240613142153 51 219 0.0 0.9 0.00 0.00 0.00 84 1020.1
20240613141652 51 160 0.9 0.9 0.00 0.00 0.00 84 1020.0
20240613141152 50 186 0.9 0.9 0.00 0.00 0.00 85 1019.8
20240613140650 50 211 0.0 0.9 0.00 0.00 0.00 86 1019.9
20240613140149 49 199 0.0 0.0 0.00 0.00 0.00 86 1019.9
20240613135647 49 204 0.0 0.0 0.00 0.00 0.00 87 1020.3
20240613135146 48 199 0.0 0.0 0.00 0.00 0.00 88 1020.2
20240613134644 48 208 0.0 0.0 0.00 0.00 0.00 89 1020.3
20240613134144 47 206 0.0 0.0 0.00 0.00 0.00 90 1020.4
20240613133643 47 207 0.0 0.0 0.00 0.00 0.00 91 1020.2
20240613133141 47 207 0.0 0.0 0.00 0.00 0.00 91 1020.3
20240613132639 47 207 0.0 0.0 0.00 0.00 0.00 91 1020.3
20240613132138 46 199 0.0 0.0 0.00 0.00 0.00 91 1020.4
20240613131635 46 199 0.0 0.0 0.00 0.00 0.00 92 1020.0
20240613131134 46 199 0.0 0.0 0.00 0.00 0.00 91 1020.2
20240613130632 46 199 0.0 0.0 0.00 0.00 0.00 91 1020.1
20240613130131 46 199 0.0 0.0 0.00 0.00 0.00 91 1020.2
20240613125629 46 199 0.0 0.0 0.00 0.00 0.00 91 1020.1
20240613125129 46 199 0.0 0.0 0.00 0.00 0.00 91 1020.1
20240613124628 46 199 0.0 0.0 0.00 0.00 0.00 90 1020.3
20240613124128 46 199 0.0 0.0 0.00 0.00 0.00 90 1020.1
20240613123627 46 199 0.0 0.0 0.00 0.00 0.00 90 1019.9
20240613123125 46 199 0.0 0.0 0.00 0.00 0.00 90 1020.0
20240613122623 46 199 0.0 0.0 0.00 0.00 0.00 90 1020.1
20240613122121 46 199 0.0 0.0 0.00 0.00 0.00 90 1020.0
20240613121619 46 199 0.0 0.0 0.00 0.00 0.00 89 1020.0